KRH646R KADW-KLGA
Flight info
| Callsign | KRH646R |
|---|---|
| Flight time | 0h 36m |
| Altitude | 9000 |
| Route | AGARD T287 SPEAK PROUD2 |
| Aircraft | A21N/M-SDE2E3FGHIRWXY/LB1 |
Departure
| Time | 2026-05-04 21:25 |
|---|---|
| Airport | Joint Base Andrews (KADW) |
Arrival
| Time | 2026-05-04 22:01 |
|---|---|
| Airport | LaGuardia Airport (KLGA) |
| Time | Latitude | Longitude | Altitude | Speed | Heading |
|---|---|---|---|---|---|
| 2026-05-04 21:08 | 38.80846 | -76.87734 | 271 ft | 0 kts | 0° |
| 2026-05-04 21:21 | 38.80861 | -76.87734 | 272 ft | 5 kts | 360° |
| 2026-05-04 21:21 | 38.80892 | -76.87685 | 271 ft | 11 kts | 84° |
| 2026-05-04 21:21 | 38.80894 | -76.87575 | 270 ft | 13 kts | 89° |
| 2026-05-04 21:21 | 38.80886 | -76.87458 | 273 ft | 12 kts | 126° |
| 2026-05-04 21:22 | 38.80799 | -76.87447 | 278 ft | 17 kts | 180° |
| 2026-05-04 21:22 | 38.80648 | -76.87448 | 278 ft | 26 kts | 181° |
| 2026-05-04 21:22 | 38.80458 | -76.87450 | 278 ft | 28 kts | 180° |
| 2026-05-04 21:22 | 38.80263 | -76.87445 | 278 ft | 28 kts | 179° |
| 2026-05-04 21:23 | 38.80066 | -76.87446 | 278 ft | 29 kts | 180° |
| 2026-05-04 21:23 | 38.79866 | -76.87444 | 278 ft | 29 kts | 180° |
| 2026-05-04 21:23 | 38.79783 | -76.87283 | 281 ft | 26 kts | 80° |
| 2026-05-04 21:23 | 38.79802 | -76.87080 | 279 ft | 15 kts | 53° |
| 2026-05-04 21:24 | 38.79846 | -76.87059 | 276 ft | 1 kts | 359° |
| 2026-05-04 21:24 | 38.79873 | -76.87060 | 276 ft | 16 kts | 359° |
| 2026-05-04 21:24 | 38.80255 | -76.87066 | 275 ft | 91 kts | 0° |
| 2026-05-04 21:24 | 38.81137 | -76.87064 | 279 ft | 164 kts | 360° |
| 2026-05-04 21:25 | 38.82369 | -76.87037 | 761 ft | 178 kts | 359° |
| 2026-05-04 21:25 | 38.83577 | -76.86817 | 1672 ft | 183 kts | 25° |
| 2026-05-04 21:25 | 38.84635 | -76.85686 | 2150 ft | 216 kts | 47° |
| 2026-05-04 21:25 | 38.85586 | -76.84004 | 2472 ft | 253 kts | 63° |
| 2026-05-04 21:26 | 38.86376 | -76.81858 | 3110 ft | 274 kts | 69° |
| 2026-05-04 21:26 | 38.87040 | -76.79541 | 4185 ft | 278 kts | 73° |
| 2026-05-04 21:26 | 38.87629 | -76.77152 | 5312 ft | 283 kts | 74° |
| 2026-05-04 21:26 | 38.88193 | -76.74703 | 6419 ft | 291 kts | 74° |
| 2026-05-04 21:27 | 38.88768 | -76.72173 | 7453 ft | 298 kts | 73° |
| 2026-05-04 21:27 | 38.89361 | -76.69602 | 8624 ft | 302 kts | 73° |
| 2026-05-04 21:27 | 38.89972 | -76.67006 | 9741 ft | 307 kts | 72° |
| 2026-05-04 21:27 | 38.90600 | -76.64380 | 10582 ft | 320 kts | 71° |
| 2026-05-04 21:28 | 38.91291 | -76.61530 | 11000 ft | 349 kts | 71° |
| 2026-05-04 21:28 | 38.92045 | -76.58438 | 11384 ft | 375 kts | 71° |
| 2026-05-04 21:28 | 38.92840 | -76.55171 | 12023 ft | 390 kts | 71° |
| 2026-05-04 21:28 | 38.93653 | -76.51813 | 12879 ft | 398 kts | 71° |
| 2026-05-04 21:29 | 38.94480 | -76.48384 | 13767 ft | 405 kts | 71° |
| 2026-05-04 21:29 | 38.95318 | -76.44904 | 14570 ft | 410 kts | 71° |
| 2026-05-04 21:29 | 38.96163 | -76.41385 | 15413 ft | 414 kts | 71° |
| 2026-05-04 21:29 | 38.97014 | -76.37833 | 16294 ft | 417 kts | 71° |
| 2026-05-04 21:30 | 38.97872 | -76.34252 | 17168 ft | 421 kts | 71° |
| 2026-05-04 21:30 | 38.98737 | -76.30636 | 18010 ft | 425 kts | 71° |
| 2026-05-04 21:30 | 38.99608 | -76.26987 | 18748 ft | 429 kts | 71° |
| 2026-05-04 21:30 | 39.00490 | -76.23292 | 19381 ft | 435 kts | 71° |
| 2026-05-04 21:31 | 39.02277 | -76.15789 | 20766 ft | 442 kts | 70° |
| 2026-05-04 21:31 | 39.03168 | -76.12037 | 21412 ft | 447 kts | 70° |
| 2026-05-04 21:31 | 39.03991 | -76.08159 | 22055 ft | 454 kts | 77° |
| 2026-05-04 21:32 | 39.04436 | -76.04120 | 22654 ft | 458 kts | 81° |
| 2026-05-04 21:32 | 39.04734 | -76.00031 | 22911 ft | 459 kts | 84° |
| 2026-05-04 21:32 | 39.04923 | -75.95929 | 22937 ft | 461 kts | 85° |
| 2026-05-04 21:32 | 39.05092 | -75.91792 | 22936 ft | 462 kts | 85° |
| 2026-05-04 21:33 | 39.05263 | -75.87659 | 22932 ft | 463 kts | 85° |
| 2026-05-04 21:33 | 39.05438 | -75.83524 | 22925 ft | 463 kts | 84° |
| 2026-05-04 21:33 | 39.05676 | -75.79399 | 22922 ft | 461 kts | 79° |
| 2026-05-04 21:33 | 39.06456 | -75.75431 | 22918 ft | 455 kts | 64° |
| 2026-05-04 21:34 | 39.07992 | -75.71931 | 22913 ft | 446 kts | 48° |
| 2026-05-04 21:34 | 39.10026 | -75.68942 | 22914 ft | 442 kts | 41° |
| 2026-05-04 21:34 | 39.12179 | -75.66092 | 22910 ft | 442 kts | 40° |
| 2026-05-04 21:34 | 39.14339 | -75.63268 | 22919 ft | 443 kts | 40° |
| 2026-05-04 21:35 | 39.16541 | -75.60385 | 22903 ft | 460 kts | 41° |
| 2026-05-04 21:35 | 39.18777 | -75.57439 | 22903 ft | 468 kts | 41° |
| 2026-05-04 21:35 | 39.21053 | -75.54422 | 22905 ft | 470 kts | 41° |
| 2026-05-04 21:35 | 39.23423 | -75.51533 | 22906 ft | 466 kts | 34° |
| 2026-05-04 21:36 | 39.26014 | -75.49051 | 22913 ft | 463 kts | 30° |
| 2026-05-04 21:36 | 39.28667 | -75.46689 | 22913 ft | 463 kts | 30° |
| 2026-05-04 21:36 | 39.31326 | -75.44345 | 22915 ft | 463 kts | 30° |
| 2026-05-04 21:36 | 39.33983 | -75.41999 | 22930 ft | 463 kts | 30° |
| 2026-05-04 21:37 | 39.36638 | -75.39648 | 22920 ft | 462 kts | 30° |
| 2026-05-04 21:37 | 39.39286 | -75.37298 | 22932 ft | 462 kts | 30° |
| 2026-05-04 21:37 | 39.41934 | -75.34943 | 22939 ft | 462 kts | 30° |
| 2026-05-04 21:37 | 39.44585 | -75.32582 | 22934 ft | 462 kts | 30° |
| 2026-05-04 21:38 | 39.47245 | -75.30213 | 22777 ft | 468 kts | 30° |
| 2026-05-04 21:38 | 39.49922 | -75.27823 | 22142 ft | 464 kts | 30° |
| 2026-05-04 21:38 | 39.52540 | -75.25413 | 21442 ft | 461 kts | 31° |
| 2026-05-04 21:38 | 39.55122 | -75.23000 | 21019 ft | 465 kts | 31° |
| 2026-05-04 21:39 | 39.57744 | -75.20541 | 20515 ft | 464 kts | 31° |
| 2026-05-04 21:39 | 39.60357 | -75.18088 | 20014 ft | 463 kts | 31° |
| 2026-05-04 21:39 | 39.62958 | -75.15645 | 19510 ft | 460 kts | 31° |
| 2026-05-04 21:39 | 39.65551 | -75.13208 | 19008 ft | 458 kts | 31° |
| 2026-05-04 21:40 | 39.68142 | -75.10814 | 18510 ft | 456 kts | 30° |
| 2026-05-04 21:40 | 39.70767 | -75.08528 | 17987 ft | 453 kts | 29° |
| 2026-05-04 21:40 | 39.73391 | -75.06276 | 17495 ft | 451 kts | 29° |
| 2026-05-04 21:40 | 39.76002 | -75.04036 | 17055 ft | 447 kts | 29° |
| 2026-05-04 21:41 | 39.78587 | -75.01814 | 16582 ft | 444 kts | 29° |
| 2026-05-04 21:41 | 39.81163 | -74.99595 | 16095 ft | 442 kts | 29° |
| 2026-05-04 21:41 | 39.83717 | -74.97393 | 15618 ft | 439 kts | 29° |
| 2026-05-04 21:41 | 39.86242 | -74.95165 | 15138 ft | 438 kts | 30° |
| 2026-05-04 21:42 | 39.88738 | -74.92911 | 14669 ft | 435 kts | 31° |
| 2026-05-04 21:42 | 39.91177 | -74.90669 | 14197 ft | 434 kts | 33° |
| 2026-05-04 21:42 | 39.93427 | -74.88035 | 13735 ft | 435 kts | 42° |
| 2026-05-04 21:42 | 39.95495 | -74.85156 | 13262 ft | 434 kts | 44° |
| 2026-05-04 21:43 | 39.97517 | -74.82247 | 12988 ft | 431 kts | 45° |
| 2026-05-04 21:43 | 39.99523 | -74.79358 | 12754 ft | 428 kts | 44° |
| 2026-05-04 21:43 | 40.01500 | -74.76515 | 12316 ft | 417 kts | 45° |
| 2026-05-04 21:43 | 40.03436 | -74.73718 | 11546 ft | 415 kts | 45° |
| 2026-05-04 21:44 | 40.05377 | -74.70928 | 10823 ft | 413 kts | 45° |
| 2026-05-04 21:44 | 40.07283 | -74.68187 | 10264 ft | 399 kts | 45° |
| 2026-05-04 21:44 | 40.09124 | -74.65536 | 10018 ft | 393 kts | 45° |
| 2026-05-04 21:44 | 40.10970 | -74.62883 | 9991 ft | 396 kts | 45° |
| 2026-05-04 21:45 | 40.12823 | -74.60217 | 10006 ft | 396 kts | 45° |
| 2026-05-04 21:45 | 40.14677 | -74.57546 | 9998 ft | 396 kts | 45° |
| 2026-05-04 21:45 | 40.16528 | -74.54877 | 9995 ft | 396 kts | 45° |
| 2026-05-04 21:45 | 40.18373 | -74.52214 | 9996 ft | 397 kts | 45° |
| 2026-05-04 21:46 | 40.20243 | -74.49555 | 10007 ft | 396 kts | 43° |
| 2026-05-04 21:46 | 40.22169 | -74.47053 | 10001 ft | 396 kts | 41° |
| 2026-05-04 21:46 | 40.24152 | -74.44553 | 10004 ft | 395 kts | 41° |
| 2026-05-04 21:46 | 40.26136 | -74.42059 | 10009 ft | 395 kts | 41° |
| 2026-05-04 21:47 | 40.28118 | -74.39563 | 10001 ft | 395 kts | 41° |
| 2026-05-04 21:47 | 40.30097 | -74.37064 | 10006 ft | 395 kts | 40° |
| 2026-05-04 21:47 | 40.32076 | -74.34564 | 10013 ft | 395 kts | 41° |
| 2026-05-04 21:47 | 40.34051 | -74.32066 | 10006 ft | 395 kts | 41° |
| 2026-05-04 21:48 | 40.36022 | -74.29567 | 9909 ft | 390 kts | 41° |
| 2026-05-04 21:48 | 40.37908 | -74.27168 | 9664 ft | 366 kts | 41° |
| 2026-05-04 21:48 | 40.39681 | -74.24911 | 9407 ft | 345 kts | 41° |
| 2026-05-04 21:48 | 40.41357 | -74.22779 | 9159 ft | 326 kts | 41° |
| 2026-05-04 21:49 | 40.42945 | -74.20758 | 8906 ft | 311 kts | 41° |
| 2026-05-04 21:49 | 40.44468 | -74.18821 | 8657 ft | 300 kts | 41° |
| 2026-05-04 21:49 | 40.45958 | -74.16926 | 8403 ft | 298 kts | 41° |
| 2026-05-04 21:49 | 40.47446 | -74.15035 | 8121 ft | 298 kts | 41° |
| 2026-05-04 21:50 | 40.48933 | -74.13143 | 7632 ft | 297 kts | 41° |
| 2026-05-04 21:50 | 40.50415 | -74.11255 | 7125 ft | 295 kts | 42° |
| 2026-05-04 21:50 | 40.51930 | -74.09450 | 6635 ft | 293 kts | 35° |
| 2026-05-04 21:50 | 40.53669 | -74.08120 | 6239 ft | 288 kts | 21° |
| 2026-05-04 21:51 | 40.55528 | -74.07138 | 5986 ft | 287 kts | 18° |
| 2026-05-04 21:51 | 40.57399 | -74.06213 | 5732 ft | 287 kts | 17° |
| 2026-05-04 21:51 | 40.59272 | -74.05288 | 5477 ft | 287 kts | 18° |
| 2026-05-04 21:51 | 40.61140 | -74.04371 | 5226 ft | 286 kts | 18° |
| 2026-05-04 21:52 | 40.63002 | -74.03460 | 4980 ft | 285 kts | 17° |
| 2026-05-04 21:52 | 40.64836 | -74.02561 | 4730 ft | 283 kts | 18° |
| 2026-05-04 21:52 | 40.66681 | -74.01662 | 4484 ft | 283 kts | 17° |
| 2026-05-04 21:52 | 40.68526 | -74.00756 | 4230 ft | 283 kts | 17° |
| 2026-05-04 21:53 | 40.70370 | -73.99856 | 4034 ft | 281 kts | 17° |
| 2026-05-04 21:53 | 40.72198 | -73.98957 | 4013 ft | 279 kts | 17° |
| 2026-05-04 21:53 | 40.74017 | -73.98051 | 4016 ft | 279 kts | 17° |
| 2026-05-04 21:53 | 40.75838 | -73.97146 | 4010 ft | 279 kts | 17° |
| 2026-05-04 21:54 | 40.77655 | -73.96242 | 3997 ft | 279 kts | 18° |
| 2026-05-04 21:54 | 40.79421 | -73.95362 | 3987 ft | 261 kts | 18° |
| 2026-05-04 21:54 | 40.81059 | -73.94547 | 3993 ft | 244 kts | 17° |
| 2026-05-04 21:54 | 40.82600 | -73.93763 | 3985 ft | 237 kts | 18° |
| 2026-05-04 21:55 | 40.84139 | -73.92985 | 3856 ft | 237 kts | 17° |
| 2026-05-04 21:55 | 40.85674 | -73.92209 | 3535 ft | 236 kts | 17° |
| 2026-05-04 21:55 | 40.87175 | -73.91293 | 3159 ft | 241 kts | 30° |
| 2026-05-04 21:55 | 40.88526 | -73.89979 | 2847 ft | 241 kts | 36° |
| 2026-05-04 21:56 | 40.89825 | -73.88594 | 2522 ft | 239 kts | 37° |
| 2026-05-04 21:56 | 40.91107 | -73.87208 | 2243 ft | 235 kts | 38° |
| 2026-05-04 21:56 | 40.92273 | -73.85711 | 2013 ft | 236 kts | 57° |
| 2026-05-04 21:56 | 40.92768 | -73.83678 | 1997 ft | 232 kts | 91° |
| 2026-05-04 21:57 | 40.92615 | -73.82323 | 1986 ft | 217 kts | 115° |
| 2026-05-04 21:57 | 40.91795 | -73.80865 | 1995 ft | 186 kts | 153° |
| 2026-05-04 21:57 | 40.90635 | -73.80273 | 2010 ft | 177 kts | 170° |
| 2026-05-04 21:57 | 40.89446 | -73.79803 | 1995 ft | 179 kts | 167° |
| 2026-05-04 21:58 | 40.88238 | -73.79582 | 1994 ft | 173 kts | 194° |
| 2026-05-04 21:58 | 40.87122 | -73.80020 | 1976 ft | 159 kts | 210° |
| 2026-05-04 21:58 | 40.86208 | -73.80737 | 1789 ft | 147 kts | 214° |
| 2026-05-04 21:58 | 40.85402 | -73.81410 | 1605 ft | 128 kts | 213° |
| 2026-05-04 21:59 | 40.84687 | -73.81997 | 1423 ft | 115 kts | 216° |
| 2026-05-04 21:59 | 40.84024 | -73.82544 | 1264 ft | 110 kts | 214° |
| 2026-05-04 21:59 | 40.83373 | -73.83083 | 1092 ft | 111 kts | 211° |
| 2026-05-04 21:59 | 40.82723 | -73.83619 | 952 ft | 112 kts | 211° |
| 2026-05-04 22:00 | 40.82053 | -73.84171 | 804 ft | 116 kts | 212° |
| 2026-05-04 22:00 | 40.81366 | -73.84738 | 663 ft | 117 kts | 213° |
| 2026-05-04 22:00 | 40.80687 | -73.85312 | 528 ft | 116 kts | 213° |
| 2026-05-04 22:00 | 40.79994 | -73.85872 | 386 ft | 116 kts | 210° |
| 2026-05-04 22:01 | 40.79312 | -73.86436 | 247 ft | 115 kts | 210° |
| 2026-05-04 22:01 | 40.78638 | -73.86991 | 83 ft | 113 kts | 212° |
| 2026-05-04 22:01 | 40.78011 | -73.87513 | 19 ft | 87 kts | 211° |
| 2026-05-04 22:01 | 40.77749 | -73.87723 | 27 ft | 8 kts | 212° |
| 2026-05-04 22:02 | 40.77684 | -73.87785 | 28 ft | 16 kts | 231° |
| 2026-05-04 22:02 | 40.77655 | -73.87920 | 24 ft | 15 kts | 258° |
| 2026-05-04 22:02 | 40.77637 | -73.88041 | 26 ft | 8 kts | 294° |
| 2026-05-04 22:02 | 40.77681 | -73.88037 | 27 ft | 8 kts | 33° |
| 2026-05-04 22:03 | 40.77733 | -73.87991 | 24 ft | 10 kts | 34° |
| 2026-05-04 22:03 | 40.77784 | -73.88010 | 25 ft | 11 kts | 302° |
| 2026-05-04 22:03 | 40.77828 | -73.88104 | 25 ft | 14 kts | 302° |
| 2026-05-04 22:03 | 40.77857 | -73.88236 | 21 ft | 17 kts | 295° |
| 2026-05-04 22:04 | 40.77906 | -73.88285 | 19 ft | 6 kts | 24° |
| 2026-05-04 22:04 | 40.77939 | -73.88238 | 18 ft | 8 kts | 78° |
| 2026-05-04 22:04 | 40.77925 | -73.88189 | 20 ft | 3 kts | 123° |
| 2026-05-04 22:04 | 40.77923 | -73.88187 | 20 ft | 0 kts | 123° |